createdAt,value
2023-04-01T00:01:59.593Z,8.28
2023-04-01T00:04:28.099Z,8.21
2023-04-01T00:06:57.073Z,8.20
2023-04-01T00:09:25.656Z,8.24
2023-04-01T00:11:58.574Z,8.23
2023-04-01T00:14:27.129Z,8.18
2023-04-01T00:16:58.123Z,8.11
2023-04-01T00:19:26.756Z,8.09
2023-04-01T00:21:55.442Z,8.11
2023-04-01T00:24:24.443Z,8.09
2023-04-01T00:26:53.132Z,8.04
2023-04-01T00:29:30.631Z,8.00
2023-04-01T00:31:59.288Z,8.02
2023-04-01T00:34:28.105Z,8.01
2023-04-01T00:36:56.694Z,7.98
2023-04-01T00:39:25.634Z,8.00
2023-04-01T00:41:55.300Z,7.97
2023-04-01T00:44:34.350Z,7.96
2023-04-01T00:47:03.037Z,7.97
2023-04-01T00:49:44.098Z,7.95
2023-04-01T00:52:14.154Z,7.90
2023-04-01T00:54:43.500Z,7.84
2023-04-01T00:57:18.408Z,7.85
2023-04-01T00:59:48.693Z,7.87
2023-04-01T01:02:17.228Z,7.84
2023-04-01T01:04:46.783Z,7.73
2023-04-01T01:07:44.850Z,7.68
2023-04-01T01:10:27.667Z,7.73
2023-04-01T01:13:03.322Z,7.69
2023-04-01T01:15:59.759Z,7.65
2023-04-01T01:18:40.429Z,7.58
2023-04-01T01:21:09.231Z,7.59
2023-04-01T01:24:08.301Z,7.61
2023-04-01T01:26:41.126Z,7.56
2023-04-01T01:29:30.594Z,7.52
2023-04-01T01:31:58.975Z,7.51
2023-04-01T01:34:35.582Z,7.56
2023-04-01T01:37:16.318Z,7.59
2023-04-01T01:39:48.170Z,7.56
2023-04-01T01:42:18.214Z,7.53
2023-04-01T01:44:48.418Z,7.55
2023-04-01T01:47:17.306Z,7.59
2023-04-01T01:49:46.199Z,7.60
2023-04-01T01:52:14.988Z,7.59
2023-04-01T01:54:54.021Z,7.55
2023-04-01T01:57:27.753Z,7.60
2023-04-01T02:00:14.794Z,7.60
2023-04-01T02:02:47.596Z,7.58
2023-04-01T02:05:17.863Z,7.59
2023-04-01T02:07:50.654Z,7.54
2023-04-01T02:10:19.674Z,7.55
2023-04-01T02:12:52.836Z,7.55
2023-04-01T02:15:22.864Z,7.51
2023-04-01T02:17:52.404Z,7.47
2023-04-01T02:20:23.249Z,7.48
2023-04-01T02:22:56.621Z,7.51
2023-04-01T02:25:29.362Z,7.50
2023-04-01T02:27:58.790Z,7.47
2023-04-01T02:30:28.916Z,7.42
2023-04-01T02:32:58.453Z,7.46
2023-04-01T02:35:27.410Z,7.52
2023-04-01T02:37:55.926Z,7.52
2023-04-01T02:40:24.378Z,7.50
2023-04-01T02:42:53.271Z,7.46
2023-04-01T02:45:22.474Z,7.49
2023-04-01T02:47:51.223Z,7.49
2023-04-01T02:50:19.864Z,7.46
2023-04-01T02:52:49.671Z,7.38
2023-04-01T02:55:18.973Z,7.37
2023-04-01T02:57:52.782Z,7.42
2023-04-01T03:00:21.878Z,7.43
2023-04-01T03:02:50.790Z,7.43
2023-04-01T03:05:19.574Z,7.42
2023-04-01T03:07:49.585Z,7.46
2023-04-01T03:10:18.888Z,7.53
2023-04-01T03:12:47.368Z,7.52
2023-04-01T03:15:16.591Z,7.50
2023-04-01T03:17:45.777Z,7.48
2023-04-01T03:20:14.372Z,7.53
2023-04-01T03:22:43.242Z,7.59
2023-04-01T03:25:12.242Z,7.60
2023-04-01T03:27:41.646Z,7.58
2023-04-01T03:30:11.107Z,7.56
2023-04-01T03:32:44.742Z,7.61
2023-04-01T03:35:13.767Z,7.67
2023-04-01T03:37:42.244Z,7.67
2023-04-01T03:40:11.583Z,7.64
2023-04-01T03:42:40.856Z,7.64
2023-04-01T03:45:13.217Z,7.70
2023-04-01T03:47:43.206Z,7.68
2023-04-01T03:50:12.449Z,7.63
2023-04-01T03:52:41.751Z,7.57
2023-04-01T03:55:10.634Z,7.58
2023-04-01T03:57:43.728Z,7.64
2023-04-01T04:00:17.883Z,7.64
2023-04-01T04:02:51.762Z,7.62
2023-04-01T04:05:24.686Z,7.63
2023-04-01T04:07:54.409Z,7.66
2023-04-01T04:10:24.402Z,7.64
2023-04-01T04:12:55.038Z,7.59
2023-04-01T04:15:24.633Z,7.51
2023-04-01T04:17:53.585Z,7.52
2023-04-01T04:20:23.435Z,7.56
2023-04-01T04:22:51.932Z,7.51
2023-04-01T04:25:20.604Z,7.46
2023-04-01T04:27:50.829Z,7.48
2023-04-01T04:30:19.317Z,7.58
2023-04-01T04:32:48.331Z,7.65
2023-04-01T04:35:17.611Z,7.71
2023-04-01T04:37:48.139Z,7.75
2023-04-01T04:40:17.750Z,7.85
2023-04-01T04:42:46.442Z,7.97
2023-04-01T04:45:16.660Z,7.98
2023-04-01T04:47:54.382Z,7.96
2023-04-01T04:50:24.860Z,7.95
2023-04-01T04:52:53.386Z,8.01
2023-04-01T04:55:22.380Z,8.08
2023-04-01T04:57:55.978Z,8.10
2023-04-01T05:00:24.667Z,8.09
2023-04-01T05:03:04.787Z,8.13
2023-04-01T05:05:34.980Z,8.18
2023-04-01T05:08:04.381Z,8.21
2023-04-01T05:10:33.249Z,8.21
2023-04-01T05:13:01.869Z,8.19
2023-04-01T05:15:38.712Z,8.22
2023-04-01T05:18:10.643Z,8.28
2023-04-01T05:20:39.575Z,8.29
2023-04-01T05:23:08.051Z,8.27
2023-04-01T05:25:39.230Z,8.26
2023-04-01T05:28:08.215Z,8.33
2023-04-01T05:30:37.920Z,8.41
2023-04-01T05:33:21.241Z,8.43
2023-04-01T05:35:49.975Z,8.43
2023-04-01T05:38:18.649Z,8.45
2023-04-01T05:40:47.408Z,8.52
2023-04-01T05:43:15.790Z,8.61
2023-04-01T05:45:45.920Z,8.64
2023-04-01T05:48:17.364Z,8.61
2023-04-01T05:50:51.069Z,8.60
2023-04-01T05:53:19.759Z,8.65
2023-04-01T05:55:48.139Z,8.74
2023-04-01T05:58:19.180Z,8.77
2023-04-01T06:00:53.615Z,8.72
2023-04-01T06:03:34.474Z,8.67
2023-04-01T06:06:03.269Z,8.69
2023-04-01T06:08:34.825Z,8.72
2023-04-01T06:11:06.276Z,8.68
2023-04-01T06:13:41.010Z,8.65
2023-04-01T06:16:22.953Z,8.59
2023-04-01T06:18:51.799Z,8.61
2023-04-01T06:21:38.217Z,8.62
2023-04-01T06:24:29.524Z,8.66
2023-04-01T06:27:34.880Z,8.65
2023-04-01T06:30:22.112Z,8.78
2023-04-01T06:33:10.250Z,8.99
2023-04-01T06:36:07.123Z,9.10
2023-04-01T06:38:58.313Z,9.16
2023-04-01T06:41:32.730Z,9.19
2023-04-01T06:44:11.454Z,9.44
2023-04-01T06:47:00.662Z,9.65
2023-04-01T06:49:58.805Z,9.81
2023-04-01T06:53:04.253Z,9.95
2023-04-01T06:55:55.095Z,9.94
2023-04-01T06:58:36.259Z,10.02
2023-04-01T07:01:07.371Z,10.08
2023-04-01T07:03:42.732Z,10.11
2023-04-01T07:06:25.458Z,10.16
2023-04-01T07:08:56.181Z,10.22
2023-04-01T07:11:38.646Z,10.35
2023-04-01T07:14:47.112Z,10.55
2023-04-01T07:17:22.831Z,10.59
2023-04-01T07:20:00.790Z,10.61
2023-04-01T07:22:34.898Z,10.63
2023-04-01T07:25:16.357Z,10.69
2023-04-01T07:27:46.604Z,10.85
2023-04-01T07:30:19.909Z,10.98
2023-04-01T07:32:57.414Z,11.03
2023-04-01T07:35:39.958Z,11.00
2023-04-01T07:38:27.247Z,11.02
2023-04-01T07:40:56.646Z,10.98
2023-04-01T07:43:38.737Z,11.00
2023-04-01T07:47:03.332Z,11.00
2023-04-01T07:49:45.747Z,10.95
2023-04-01T07:52:27.038Z,10.89
2023-04-01T07:55:15.287Z,10.84
2023-04-01T07:58:01.168Z,10.87
2023-04-01T08:00:47.988Z,10.84
2023-04-01T08:05:00.870Z,10.71
2023-04-01T08:07:32.988Z,10.63
2023-04-01T08:11:04.031Z,10.74
2023-04-01T08:14:13.005Z,10.86
2023-04-01T08:17:07.195Z,11.03
2023-04-01T08:19:53.286Z,11.17
2023-04-01T08:22:28.819Z,11.35
2023-04-01T08:25:03.738Z,11.48
2023-04-01T08:27:39.160Z,11.53
2023-04-01T08:30:22.845Z,11.58
2023-04-01T08:32:59.932Z,11.75
2023-04-01T08:35:43.186Z,11.97
2023-04-01T08:38:38.444Z,12.23
2023-04-01T08:41:28.825Z,12.32
2023-04-01T08:44:45.537Z,12.33
2023-04-01T08:47:45.190Z,12.40
2023-04-01T08:50:33.207Z,12.54
2023-04-01T08:53:26.254Z,12.58
2023-04-01T08:56:26.277Z,12.72
2023-04-01T08:58:59.434Z,12.83
2023-04-01T09:01:52.147Z,12.93
2023-04-01T09:04:59.412Z,13.10
2023-04-01T09:07:52.780Z,13.13
2023-04-01T09:11:01.197Z,13.13
2023-04-01T09:14:30.623Z,13.28
2023-04-01T09:17:31.168Z,13.64
2023-04-01T09:20:40.489Z,13.94
2023-04-01T09:23:34.574Z,14.41
2023-04-01T09:26:40.850Z,14.74
2023-04-01T09:29:37.486Z,14.97
2023-04-01T09:32:12.319Z,15.11
2023-04-01T09:35:24.735Z,15.11
2023-04-01T09:38:10.022Z,15.06
2023-04-01T09:40:46.492Z,14.91
2023-04-01T09:43:28.587Z,14.75
2023-04-01T09:46:16.072Z,14.69
2023-04-01T09:48:56.786Z,14.80
2023-04-01T09:51:38.273Z,14.93
2023-04-01T09:54:30.422Z,14.98
2023-04-01T09:57:31.654Z,15.07
2023-04-01T10:00:40.495Z,15.21
2023-04-01T10:03:28.481Z,15.31
2023-04-01T10:06:16.987Z,15.49
2023-04-01T10:09:18.440Z,15.69
2023-04-01T10:11:57.681Z,15.78
2023-04-01T10:14:38.248Z,15.74
2023-04-01T10:17:23.436Z,15.72
2023-04-01T10:20:21.296Z,15.71
2023-04-01T10:23:38.940Z,15.59
2023-04-01T10:26:14.587Z,15.42
2023-04-01T10:29:04.056Z,15.35
2023-04-01T10:31:54.777Z,15.31
2023-04-01T10:34:30.311Z,15.26
2023-04-01T10:37:00.741Z,15.17
2023-04-01T10:39:39.210Z,15.09
2023-04-01T10:42:38.898Z,14.97
2023-04-01T10:45:37.230Z,14.81
2023-04-01T10:48:35.347Z,14.70
2023-04-01T10:51:36.182Z,14.69
2023-04-01T10:54:26.608Z,14.72
2023-04-01T10:57:31.612Z,14.78
2023-04-01T11:00:31.137Z,14.79
2023-04-01T11:03:30.026Z,14.79
2023-04-01T11:07:11.747Z,14.87
2023-04-01T11:10:18.828Z,15.05
2023-04-01T11:13:13.735Z,15.14
2023-04-01T11:15:46.227Z,15.16
2023-04-01T11:18:52.094Z,15.17
2023-04-01T11:21:59.674Z,15.09
2023-04-01T11:25:27.043Z,14.96
2023-04-01T11:28:18.893Z,14.81
2023-04-01T11:31:05.826Z,14.73
2023-04-01T11:34:10.218Z,14.75
2023-04-01T11:37:23.860Z,14.84
2023-04-01T11:40:49.697Z,14.92
2023-04-01T11:43:45.930Z,14.97
2023-04-01T11:46:39.509Z,14.98
2023-04-01T11:49:26.525Z,15.00
2023-04-01T11:52:27.491Z,15.08
2023-04-01T11:54:59.439Z,15.13
2023-04-01T11:57:44.511Z,15.13
2023-04-01T12:00:19.850Z,15.12
2023-04-01T12:02:58.647Z,15.10
2023-04-01T12:06:05.256Z,15.13
2023-04-01T12:08:55.969Z,15.27
2023-04-01T12:11:49.852Z,15.41
2023-04-01T12:14:39.829Z,15.48
2023-04-01T12:17:16.333Z,15.67
2023-04-01T12:20:16.856Z,15.82
2023-04-01T12:23:20.754Z,16.00
2023-04-01T12:25:49.440Z,16.02
2023-04-01T12:28:46.186Z,15.98
2023-04-01T12:31:41.308Z,15.91
2023-04-01T12:34:13.265Z,15.84
2023-04-01T12:36:57.217Z,15.78
2023-04-01T12:39:40.809Z,15.76
2023-04-01T12:42:14.043Z,15.73
2023-04-01T12:44:57.890Z,15.64
2023-04-01T12:47:48.453Z,15.53
2023-04-01T12:50:42.165Z,15.39
2023-04-01T12:53:35.330Z,15.23
2023-04-01T12:56:05.150Z,15.08
2023-04-01T12:58:52.608Z,14.98
2023-04-01T13:01:32.670Z,14.91
2023-04-01T13:04:35.312Z,14.86
2023-04-01T13:07:38.264Z,14.82
2023-04-01T13:10:13.856Z,14.76
2023-04-01T13:13:07.160Z,14.71
2023-04-01T13:15:41.780Z,14.68
2023-04-01T13:18:16.372Z,14.64
2023-04-01T13:20:57.149Z,14.62
2023-04-01T13:23:56.662Z,14.58
2023-04-01T13:26:40.914Z,14.45
2023-04-01T13:29:18.395Z,14.24
2023-04-01T13:31:57.076Z,14.10
2023-04-01T13:34:56.949Z,14.01
2023-04-01T13:37:53.080Z,13.98
2023-04-01T13:40:39.353Z,13.97
2023-04-01T13:43:47.803Z,13.97
2023-04-01T13:46:51.416Z,13.95
2023-04-01T13:49:53.995Z,13.89
2023-04-01T13:52:42.546Z,13.85
2023-04-01T13:55:38.987Z,13.82
2023-04-01T13:58:18.339Z,13.79
2023-04-01T14:01:03.724Z,13.76
2023-04-01T14:04:06.092Z,13.76
2023-04-01T14:07:06.115Z,13.76
2023-04-01T14:10:06.948Z,13.75
2023-04-01T14:12:48.545Z,13.73
2023-04-01T14:15:35.839Z,13.71
2023-04-01T14:18:27.436Z,13.72
2023-04-01T14:21:18.110Z,13.69
2023-04-01T14:23:56.010Z,13.65
2023-04-01T14:27:10.572Z,13.61
2023-04-01T14:29:39.688Z,13.56
2023-04-01T14:32:19.213Z,13.49
2023-04-01T14:35:12.584Z,13.46
2023-04-01T14:38:00.436Z,13.40
2023-04-01T14:40:44.582Z,13.32
2023-04-01T14:43:29.436Z,13.26
2023-04-01T14:46:22.956Z,13.21
2023-04-01T14:48:51.290Z,13.17
2023-04-01T14:51:36.150Z,13.13
2023-04-01T14:54:24.199Z,13.19
2023-04-01T14:57:02.979Z,13.20
2023-04-01T14:59:35.193Z,13.19
2023-04-01T15:02:42.055Z,13.17
2023-04-01T15:05:33.015Z,13.15
2023-04-01T15:08:23.624Z,13.09
2023-04-01T15:10:58.220Z,13.03
2023-04-01T15:13:45.970Z,12.98
2023-04-01T15:16:45.668Z,12.93
2023-04-01T15:19:36.492Z,12.86
2023-04-01T15:22:23.141Z,12.83
2023-04-01T15:25:06.727Z,12.83
2023-04-01T15:27:44.733Z,12.81
2023-04-01T15:30:23.968Z,12.80
2023-04-01T15:33:01.694Z,12.77
2023-04-01T15:35:58.653Z,12.72
2023-04-01T15:38:42.978Z,12.67
2023-04-01T15:41:19.041Z,12.62
2023-04-01T15:43:50.831Z,12.60
2023-04-01T15:46:31.603Z,12.62
2023-04-01T15:49:00.889Z,12.59
2023-04-01T15:51:52.201Z,12.54
2023-04-01T15:54:32.557Z,12.49
2023-04-01T15:57:04.228Z,12.43
2023-04-01T15:59:45.289Z,12.41
2023-04-01T16:02:46.893Z,12.41
2023-04-01T16:05:37.654Z,12.36
2023-04-01T16:08:39.584Z,12.32
2023-04-01T16:11:20.601Z,12.27
2023-04-01T16:14:21.632Z,12.22
2023-04-01T16:17:39.017Z,12.20
2023-04-01T16:20:27.741Z,12.27
2023-04-01T16:23:00.212Z,12.21
2023-04-01T16:25:43.074Z,12.16
2023-04-01T16:28:33.966Z,12.08
2023-04-01T16:31:28.952Z,12.00
2023-04-01T16:34:12.791Z,11.98
2023-04-01T16:36:50.903Z,12.00
2023-04-01T16:39:45.092Z,11.99
2023-04-01T16:42:34.364Z,11.95
2023-04-01T16:45:08.709Z,11.91
2023-04-01T16:47:46.641Z,11.88
2023-04-01T16:50:15.380Z,11.90
2023-04-01T16:53:01.116Z,11.91
2023-04-01T16:55:49.413Z,11.86
2023-04-01T16:59:03.765Z,11.80
2023-04-01T17:01:46.379Z,11.71
2023-04-01T17:04:39.790Z,11.69
2023-04-01T17:07:32.403Z,11.75
2023-04-01T17:10:29.776Z,11.74
2023-04-01T17:13:29.072Z,11.71
2023-04-01T17:16:35.650Z,11.65
2023-04-01T17:19:13.965Z,11.68
2023-04-01T17:21:58.750Z,11.72
2023-04-01T17:24:51.300Z,11.66
2023-04-01T17:27:25.180Z,11.66
2023-04-01T17:30:12.218Z,11.64
2023-04-01T17:32:59.393Z,11.68
2023-04-01T17:35:34.205Z,11.69
2023-04-01T17:38:15.274Z,11.66
2023-04-01T17:40:51.815Z,11.62
2023-04-01T17:43:56.448Z,11.55
2023-04-01T17:46:53.626Z,11.59
2023-04-01T17:49:31.929Z,11.59
2023-04-01T17:52:09.720Z,11.57
2023-04-01T17:55:15.790Z,11.49
2023-04-01T17:58:02.918Z,11.50
2023-04-01T18:00:53.121Z,11.49
2023-04-01T18:03:30.056Z,11.49
2023-04-01T18:06:46.296Z,11.46
2023-04-01T18:10:17.453Z,11.44
2023-04-01T18:13:13.377Z,11.50
2023-04-01T18:16:04.028Z,11.44
2023-04-01T18:18:42.291Z,11.39
2023-04-01T18:21:40.674Z,11.37
2023-04-01T18:24:51.044Z,11.40
2023-04-01T18:27:23.930Z,11.37
2023-04-01T18:30:12.910Z,11.32
2023-04-01T18:33:25.517Z,11.27
2023-04-01T18:36:42.638Z,11.25
2023-04-01T18:39:13.476Z,11.22
2023-04-01T18:41:42.252Z,11.19
2023-04-01T18:44:50.000Z,11.19
2023-04-01T18:47:33.528Z,11.24
2023-04-01T18:50:45.106Z,11.23
2023-04-01T18:53:35.810Z,11.19
2023-04-01T18:56:05.095Z,11.17
2023-04-01T18:58:33.503Z,11.19
2023-04-01T19:01:24.870Z,11.19
2023-04-01T19:04:12.350Z,11.14
2023-04-01T19:06:48.921Z,11.10
2023-04-01T19:09:23.180Z,11.13
2023-04-01T19:11:56.051Z,11.20
2023-04-01T19:14:54.336Z,11.21
2023-04-01T19:17:29.154Z,11.19
2023-04-01T19:20:46.981Z,11.08
2023-04-01T19:23:25.401Z,11.15
2023-04-01T19:25:56.659Z,11.15
2023-04-01T19:28:36.296Z,11.12
2023-04-01T19:31:32.359Z,11.06
2023-04-01T19:34:24.353Z,11.06
2023-04-01T19:37:04.834Z,11.05
2023-04-01T19:39:52.820Z,11.00
2023-04-01T19:42:24.328Z,10.96
2023-04-01T19:45:02.130Z,10.99
2023-04-01T19:47:55.957Z,11.05
2023-04-01T19:50:40.787Z,11.02
2023-04-01T19:53:34.146Z,10.99
2023-04-01T19:56:32.754Z,10.96
2023-04-01T19:59:20.677Z,11.01
2023-04-01T20:02:16.921Z,11.00
2023-04-01T20:04:47.451Z,10.97
2023-04-01T20:07:34.378Z,10.93
2023-04-01T20:10:09.713Z,10.93
2023-04-01T20:12:44.596Z,10.95
2023-04-01T20:15:28.588Z,10.96
2023-04-01T20:17:58.388Z,10.97
2023-04-01T20:22:46.983Z,10.98
2023-04-01T20:25:27.752Z,11.01
2023-04-01T20:27:57.363Z,11.03
2023-04-01T20:30:38.026Z,11.01
2023-04-01T20:33:18.290Z,10.97
2023-04-01T20:36:07.403Z,10.98
2023-04-01T20:38:52.170Z,11.00
2023-04-01T20:41:25.524Z,10.97
2023-04-01T20:44:33.433Z,10.93
2023-04-01T20:47:12.365Z,10.94
2023-04-01T20:49:48.630Z,10.96
2023-04-01T20:52:17.014Z,10.95
2023-04-01T20:55:40.694Z,10.91
2023-04-01T20:58:22.286Z,10.90
2023-04-01T21:00:56.782Z,10.94
2023-04-01T21:03:50.076Z,10.94
2023-04-01T21:06:45.905Z,10.91
2023-04-01T21:09:23.707Z,10.86
2023-04-01T21:12:28.752Z,10.87
2023-04-01T21:15:13.110Z,10.87
2023-04-01T21:18:05.384Z,10.80
2023-04-01T21:20:59.232Z,10.79
2023-04-01T21:23:49.115Z,10.86
2023-04-01T21:26:28.352Z,10.88
2023-04-01T21:29:36.772Z,10.86
2023-04-01T21:32:37.730Z,10.82
2023-04-01T21:35:19.617Z,10.82
2023-04-01T21:38:02.541Z,10.89
2023-04-01T21:41:00.925Z,10.93
2023-04-01T21:43:56.572Z,10.92
2023-04-01T21:46:41.178Z,10.88
2023-04-01T21:49:28.399Z,10.94
2023-04-01T21:52:06.047Z,10.99
2023-04-01T21:55:12.201Z,10.97
2023-04-01T21:58:05.777Z,10.95
2023-04-01T22:00:38.560Z,10.92
2023-04-01T22:03:41.093Z,10.97
2023-04-01T22:06:28.161Z,10.99
2023-04-01T22:09:39.149Z,11.00
2023-04-01T22:12:14.694Z,10.99
2023-04-01T22:14:49.321Z,11.00
2023-04-01T22:17:30.831Z,11.00
2023-04-01T22:20:24.588Z,10.98
2023-04-01T22:23:15.088Z,10.89
2023-04-01T22:26:04.368Z,10.90
2023-04-01T22:29:01.311Z,10.93
2023-04-01T22:31:34.341Z,10.94
2023-04-01T22:34:15.794Z,10.91
2023-04-01T22:36:59.128Z,10.91
2023-04-01T22:39:52.905Z,10.99
2023-04-01T22:42:43.231Z,11.02
2023-04-01T22:45:22.436Z,10.98
2023-04-01T22:48:10.284Z,10.94
2023-04-01T22:50:56.200Z,10.90
2023-04-01T22:53:28.851Z,10.94
2023-04-01T22:55:58.918Z,10.94
2023-04-01T22:58:40.059Z,10.91
2023-04-01T23:01:20.555Z,10.91
2023-04-01T23:03:50.346Z,10.95
2023-04-01T23:06:32.643Z,11.01
2023-04-01T23:09:32.926Z,11.01
2023-04-01T23:12:12.451Z,10.94
2023-04-01T23:14:57.700Z,10.89
2023-04-01T23:17:49.795Z,10.91
2023-04-01T23:20:54.271Z,10.92
2023-04-01T23:23:48.555Z,10.90
2023-04-01T23:26:38.034Z,10.88
2023-04-01T23:29:27.305Z,10.86
2023-04-01T23:32:00.738Z,10.94
2023-04-01T23:34:31.979Z,10.95
2023-04-01T23:37:12.972Z,10.94
2023-04-01T23:39:42.495Z,10.93
2023-04-01T23:42:17.177Z,11.00
2023-04-01T23:44:45.761Z,11.07
2023-04-01T23:47:25.775Z,11.09
2023-04-01T23:49:59.183Z,11.09
2023-04-01T23:52:31.396Z,11.06
2023-04-01T23:55:02.958Z,11.08
2023-04-01T23:57:35.768Z,11.13
